Storm Events Database

Event Details

Event Hail
Magnitude 1.25 in.
State SOUTH DAKOTA
County/Area BRULE
WFO FSD
Report Source Public
NCDC Data Source CSV
Begin Date 2012-05-05 20:30:00.0 CST-6
Begin Location 5E EAGLE
Begin Lat/Lon 43.56/-98.99
End Date 2012-05-05 20:30:00.0 CST-6
Deaths Direct/Indirect 0/0 (fatality details below, when available...)
Injuries Direct/Indirect 0/0
Property Damage 0.00K
Crop Damage 0.00K
Episode Narrative Thunderstorms produced large hail, damaging winds, and flash flooding in southeast South Dakota, near and north of Interstate 90, during the evening of May 5th. The flash flooding continued past midnight on May 6th.
Event Narrative


     ‚Äč



All events for this episode:

Location County/Zone St. Date Time T.Z. Type Mag Dth Inj PrD CrD
Totals: 1 0 3.021M 0.00K
BETTS DAVISON CO. SD 05/05/2012 17:45 CST-6 Hail 1.00 in. 0 0 0.00K 0.00K
MITCHELL DAVISON CO. SD 05/05/2012 17:48 CST-6 Thunderstorm Wind 56 kts. EG 0 0 0.00K 0.00K
MITCHELL DAVISON CO. SD 05/05/2012 17:55 CST-6 Thunderstorm Wind 68 kts. MG 0 0 1.00K 0.00K
ARTESIAN SANBORN CO. SD 05/05/2012 18:04 CST-6 Hail 1.75 in. 0 0 0.00K 0.00K
FULTON HANSON CO. SD 05/05/2012 18:21 CST-6 Hail 1.00 in. 0 0 0.00K 0.00K
PLANO HANSON CO. SD 05/05/2012 18:47 CST-6 Hail 1.75 in. 0 0 0.00K 0.00K
EPIPHANY MINER CO. SD 05/05/2012 18:52 CST-6 Hail 1.00 in. 0 0 0.00K 0.00K
PLANO HANSON CO. SD 05/05/2012 19:00 CST-6 Hail 1.00 in. 0 0 0.00K 0.00K
PLANO HANSON CO. SD 05/05/2012 19:00 CST-6 Flash Flood 0 0 0.00K 0.00K
BADGER KINGSBURY CO. SD 05/05/2012 19:10 CST-6 Hail 1.00 in. 0 0 0.00K 0.00K
WINFRED LAKE CO. SD 05/05/2012 19:24 CST-6 Hail 0.88 in. 0 0 0.00K 0.00K
ORLAND LAKE CO. SD 05/05/2012 19:41 CST-6 Thunderstorm Wind 70 kts. EG 0 0 0.00K 0.00K
JUNIUS LAKE CO. SD 05/05/2012 19:42 CST-6 Hail 1.00 in. 0 0 0.00K 0.00K
BRUCE BROOKINGS CO. SD 05/05/2012 19:43 CST-6 Hail 1.25 in. 0 0 0.00K 0.00K
MADISON LAKE CO. SD 05/05/2012 19:45 CST-6 Hail 1.75 in. 0 0 0.00K 0.00K
MADISON LAKE CO. SD 05/05/2012 19:49 CST-6 Thunderstorm Wind 65 kts. EG 0 0 0.00K 0.00K
SALEM MCCOOK CO. SD 05/05/2012 19:50 CST-6 Thunderstorm Wind 52 kts. EG 0 0 10.00K 0.00K
CAVOUR BEADLE CO. SD 05/05/2012 20:10 CST-6 Hail 1.00 in. 0 0 0.00K 0.00K
MADISON MUNI ARPT LAKE CO. SD 05/05/2012 20:12 CST-6 Thunderstorm Wind 52 kts. EG 0 0 0.00K 0.00K
MADISON MUNI ARPT LAKE CO. SD 05/05/2012 20:12 CST-6 Hail 1.00 in. 0 0 0.00K 0.00K
JUNIUS LAKE CO. SD 05/05/2012 20:13 CST-6 Hail 1.00 in. 0 0 0.00K 0.00K
COLMAN MOODY CO. SD 05/05/2012 20:30 CST-6 Hail 1.00 in. 0 0 0.00K 0.00K
EAGLE BRULE CO. SD 05/05/2012 20:30 CST-6 Hail 1.25 in. 0 0 0.00K 0.00K
MADISON LAKE CO. SD 05/05/2012 20:30 CST-6 Thunderstorm Wind 61 kts. EG 0 0 5.00K 0.00K
FLANDREAU MOODY CO. SD 05/05/2012 20:57 CST-6 Thunderstorm Wind 63 kts. MG 0 0 0.00K 0.00K
FLANDREAU MOODY CO. SD 05/05/2012 21:00 CST-6 Thunderstorm Wind 65 kts. EG 0 0 1.000M 0.00K
FLANDREAU MUNI ARPT MOODY CO. SD 05/05/2012 22:22 CST-6 Thunderstorm Wind 61 kts. EG 0 0 5.00K 0.00K
WENTWORTH LAKE CO. SD 05/05/2012 22:30 CST-6 Thunderstorm Wind 52 kts. EG 0 0 0.00K 0.00K
ORLAND LAKE CO. SD 05/05/2012 22:45 CST-6 Flash Flood 1 0 2.000M 0.00K
Totals: 1 0 3.021M 0.00K